sensor_id;sensor_type;location;lat;lon;timestamp;P1;durP1;ratioP1;P2;durP2;ratioP2
76593;SDS011;65482;50.240;14.302;2022-12-16T07:01:44;67.40;;;28.02;;
76593;SDS011;65482;50.240;14.302;2022-12-16T07:04:29;74.60;;;30.00;;
76593;SDS011;65482;50.240;14.302;2022-12-16T07:07:13;69.17;;;28.53;;
76593;SDS011;65482;50.240;14.302;2022-12-16T07:10:02;59.78;;;25.88;;
76593;SDS011;65482;50.240;14.302;2022-12-16T07:12:47;63.58;;;25.38;;
76593;SDS011;65482;50.240;14.302;2022-12-16T07:15:31;59.65;;;25.95;;
76593;SDS011;65482;50.240;14.302;2022-12-16T07:18:15;64.28;;;27.50;;
76593;SDS011;65482;50.240;14.302;2022-12-16T07:20:59;71.88;;;25.92;;
76593;SDS011;65482;50.240;14.302;2022-12-16T07:23:44;68.20;;;27.48;;
76593;SDS011;65482;50.240;14.302;2022-12-16T07:26:28;62.85;;;25.98;;
76593;SDS011;65482;50.240;14.302;2022-12-16T07:29:12;67.43;;;27.90;;
76593;SDS011;65482;50.240;14.302;2022-12-16T07:31:57;63.22;;;27.10;;
76593;SDS011;65482;50.240;14.302;2022-12-16T07:34:41;68.80;;;27.90;;
76593;SDS011;65482;50.240;14.302;2022-12-16T07:40:12;75.75;;;27.98;;
76593;SDS011;65482;50.240;14.302;2022-12-16T07:42:57;69.40;;;28.13;;
76593;SDS011;65482;50.240;14.302;2022-12-16T07:48:58;64.35;;;25.20;;
76593;SDS011;65482;50.240;14.302;2022-12-16T07:51:45;69.97;;;27.48;;
76593;SDS011;65482;50.240;14.302;2022-12-16T07:54:32;66.93;;;27.13;;
76593;SDS011;65482;50.240;14.302;2022-12-16T07:57:19;65.47;;;26.85;;
76593;SDS011;65482;50.240;14.302;2022-12-16T08:00:04;68.15;;;29.40;;
76593;SDS011;65482;50.240;14.302;2022-12-16T08:02:55;63.55;;;26.63;;
76593;SDS011;65482;50.240;14.302;2022-12-16T08:05:57;62.72;;;26.42;;
76593;SDS011;65482;50.240;14.302;2022-12-16T08:08:42;63.85;;;26.80;;
76593;SDS011;65482;50.240;14.302;2022-12-16T08:11:33;66.07;;;29.02;;
76593;SDS011;65482;50.240;14.302;2022-12-16T08:14:18;67.30;;;27.17;;
76593;SDS011;65482;50.240;14.302;2022-12-16T08:17:13;55.35;;;23.48;;
76593;SDS011;65482;50.240;14.302;2022-12-16T08:20:00;63.28;;;25.20;;
76593;SDS011;65482;50.240;14.302;2022-12-16T08:22:48;60.88;;;26.05;;
76593;SDS011;65482;50.240;14.302;2022-12-16T08:25:34;57.33;;;25.00;;
76593;SDS011;65482;50.240;14.302;2022-12-16T08:28:22;62.30;;;25.23;;
76593;SDS011;65482;50.240;14.302;2022-12-16T08:31:07;59.88;;;24.08;;
76593;SDS011;65482;50.240;14.302;2022-12-16T08:33:55;59.92;;;25.80;;
76593;SDS011;65482;50.240;14.302;2022-12-16T08:36:51;59.42;;;25.25;;
76593;SDS011;65482;50.240;14.302;2022-12-16T08:39:36;65.57;;;27.15;;
76593;SDS011;65482;50.240;14.302;2022-12-16T08:42:23;72.05;;;28.92;;
76593;SDS011;65482;50.240;14.302;2022-12-16T08:45:07;64.28;;;29.02;;
76593;SDS011;65482;50.240;14.302;2022-12-16T08:47:52;60.40;;;26.20;;
76593;SDS011;65482;50.240;14.302;2022-12-16T08:50:55;67.05;;;28.58;;
76593;SDS011;65482;50.240;14.302;2022-12-16T08:53:44;63.58;;;27.35;;
76593;SDS011;65482;50.240;14.302;2022-12-16T08:56:56;61.33;;;26.80;;
76593;SDS011;65482;50.240;14.302;2022-12-16T08:59:41;66.72;;;27.55;;
76593;SDS011;65482;50.240;14.302;2022-12-16T09:51:15;58.88;;;24.63;;
76593;SDS011;65482;50.240;14.302;2022-12-16T09:54:00;56.70;;;24.75;;
76593;SDS011;65482;50.240;14.302;2022-12-16T09:56:47;61.65;;;25.23;;
76593;SDS011;65482;50.240;14.302;2022-12-16T09:59:59;56.22;;;25.88;;
76593;SDS011;65482;50.240;14.302;2022-12-16T10:02:48;59.10;;;25.25;;
76593;SDS011;65482;50.240;14.302;2022-12-16T10:05:54;60.50;;;26.55;;
76593;SDS011;65482;50.240;14.302;2022-12-16T10:09:31;60.78;;;26.15;;
76593;SDS011;65482;50.240;14.302;2022-12-16T10:12:13;60.97;;;25.85;;
76593;SDS011;65482;50.240;14.302;2022-12-16T10:15:13;63.75;;;26.52;;
76593;SDS011;65482;50.240;14.302;2022-12-16T10:18:28;59.85;;;25.55;;
76593;SDS011;65482;50.240;14.302;2022-12-16T10:21:24;65.17;;;28.73;;
76593;SDS011;65482;50.240;14.302;2022-12-16T10:30:31;57.22;;;26.38;;
76593;SDS011;65482;50.240;14.302;2022-12-16T10:33:19;61.75;;;27.63;;
76593;SDS011;65482;50.240;14.302;2022-12-16T10:36:10;60.30;;;26.80;;
76593;SDS011;65482;50.240;14.302;2022-12-16T10:42:23;57.35;;;25.98;;
76593;SDS011;65482;50.240;14.302;2022-12-16T10:45:30;61.40;;;26.42;;
76593;SDS011;65482;50.240;14.302;2022-12-16T10:48:22;55.38;;;25.15;;
76593;SDS011;65482;50.240;14.302;2022-12-16T11:49:30;65.57;;;29.13;;
76593;SDS011;65482;50.240;14.302;2022-12-16T12:22:08;58.30;;;26.00;;
76593;SDS011;65482;50.240;14.302;2022-12-16T12:46:19;52.47;;;24.38;;
76593;SDS011;65482;50.240;14.302;2022-12-16T12:51:16;62.00;;;27.25;;
76593;SDS011;65482;50.240;14.302;2022-12-16T13:24:49;54.78;;;24.08;;
76593;SDS011;65482;50.240;14.302;2022-12-16T13:27:46;53.17;;;24.15;;
76593;SDS011;65482;50.240;14.302;2022-12-16T13:30:39;54.92;;;23.40;;
76593;SDS011;65482;50.240;14.302;2022-12-16T13:37:24;52.45;;;22.92;;
76593;SDS011;65482;50.240;14.302;2022-12-16T13:40:22;50.58;;;23.80;;
76593;SDS011;65482;50.240;14.302;2022-12-16T13:46:42;56.42;;;23.92;;
76593;SDS011;65482;50.240;14.302;2022-12-16T13:52:43;49.95;;;22.17;;
76593;SDS011;65482;50.240;14.302;2022-12-16T13:55:46;49.40;;;21.55;;
76593;SDS011;65482;50.240;14.302;2022-12-16T13:58:49;49.95;;;22.33;;
76593;SDS011;65482;50.240;14.302;2022-12-16T14:04:33;47.75;;;21.42;;
76593;SDS011;65482;50.240;14.302;2022-12-16T14:07:29;44.97;;;21.10;;
76593;SDS011;65482;50.240;14.302;2022-12-16T14:13:14;51.13;;;21.58;;
76593;SDS011;65482;50.240;14.302;2022-12-16T14:25:41;49.60;;;22.17;;
76593;SDS011;65482;50.240;14.302;2022-12-16T14:28:34;51.97;;;22.30;;
76593;SDS011;65482;50.240;14.302;2022-12-16T14:31:23;53.00;;;22.88;;
76593;SDS011;65482;50.240;14.302;2022-12-16T14:34:15;52.22;;;23.85;;
76593;SDS011;65482;50.240;14.302;2022-12-16T14:40:01;53.67;;;23.27;;
76593;SDS011;65482;50.240;14.302;2022-12-16T14:42:46;52.17;;;22.10;;
76593;SDS011;65482;50.240;14.302;2022-12-16T14:45:34;50.20;;;22.40;;
76593;SDS011;65482;50.240;14.302;2022-12-16T14:48:33;52.30;;;23.17;;
76593;SDS011;65482;50.240;14.302;2022-12-16T14:57:02;49.72;;;22.33;;
76593;SDS011;65482;50.240;14.302;2022-12-16T14:59:46;50.35;;;23.45;;
76593;SDS011;65482;50.240;14.302;2022-12-16T15:02:32;50.13;;;22.90;;
76593;SDS011;65482;50.240;14.302;2022-12-16T15:05:28;62.42;;;25.48;;
76593;SDS011;65482;50.240;14.302;2022-12-16T15:08:16;55.63;;;24.05;;
76593;SDS011;65482;50.240;14.302;2022-12-16T15:11:01;53.38;;;23.15;;
76593;SDS011;65482;50.240;14.302;2022-12-16T15:13:47;53.95;;;22.73;;
76593;SDS011;65482;50.240;14.302;2022-12-16T15:16:37;47.35;;;20.98;;
76593;SDS011;65482;50.240;14.302;2022-12-16T15:19:21;48.88;;;20.75;;
76593;SDS011;65482;50.240;14.302;2022-12-16T15:22:13;52.97;;;22.80;;
76593;SDS011;65482;50.240;14.302;2022-12-16T15:24:59;42.47;;;19.67;;
76593;SDS011;65482;50.240;14.302;2022-12-16T15:27:51;51.17;;;21.58;;
76593;SDS011;65482;50.240;14.302;2022-12-16T15:30:43;51.03;;;21.90;;
76593;SDS011;65482;50.240;14.302;2022-12-16T15:33:30;46.50;;;21.13;;
76593;SDS011;65482;50.240;14.302;2022-12-16T15:36:37;47.03;;;21.27;;
76593;SDS011;65482;50.240;14.302;2022-12-16T15:39:26;45.53;;;20.15;;
76593;SDS011;65482;50.240;14.302;2022-12-16T15:42:18;48.40;;;20.88;;
76593;SDS011;65482;50.240;14.302;2022-12-16T15:45:15;46.10;;;19.92;;
76593;SDS011;65482;50.240;14.302;2022-12-16T15:48:06;42.85;;;19.58;;
76593;SDS011;65482;50.240;14.302;2022-12-16T15:50:56;44.50;;;20.58;;
76593;SDS011;65482;50.240;14.302;2022-12-16T15:53:40;45.38;;;21.17;;
76593;SDS011;65482;50.240;14.302;2022-12-16T15:56:26;46.47;;;20.30;;
76593;SDS011;65482;50.240;14.302;2022-12-16T16:02:21;50.15;;;21.75;;
76593;SDS011;65482;50.240;14.302;2022-12-16T16:05:11;52.00;;;21.65;;
76593;SDS011;65482;50.240;14.302;2022-12-16T16:07:59;49.65;;;20.98;;
76593;SDS011;65482;50.240;14.302;2022-12-16T16:10:47;54.22;;;23.10;;
76593;SDS011;65482;50.240;14.302;2022-12-16T16:13:32;51.75;;;23.17;;
76593;SDS011;65482;50.240;14.302;2022-12-16T16:19:01;44.90;;;20.65;;
76593;SDS011;65482;50.240;14.302;2022-12-16T16:21:46;54.15;;;22.50;;
76593;SDS011;65482;50.240;14.302;2022-12-16T16:24:30;50.80;;;23.05;;
76593;SDS011;65482;50.240;14.302;2022-12-16T16:27:14;61.22;;;25.92;;
76593;SDS011;65482;50.240;14.302;2022-12-16T16:29:59;59.35;;;24.13;;
76593;SDS011;65482;50.240;14.302;2022-12-16T16:32:44;57.75;;;26.48;;
76593;SDS011;65482;50.240;14.302;2022-12-16T16:38:16;50.60;;;23.02;;
76593;SDS011;65482;50.240;14.302;2022-12-16T16:41:01;51.65;;;22.15;;
76593;SDS011;65482;50.240;14.302;2022-12-16T16:43:45;50.42;;;23.30;;
76593;SDS011;65482;50.240;14.302;2022-12-16T16:46:34;48.40;;;22.45;;
76593;SDS011;65482;50.240;14.302;2022-12-16T16:49:27;54.20;;;23.58;;
76593;SDS011;65482;50.240;14.302;2022-12-16T16:52:14;47.92;;;21.92;;
76593;SDS011;65482;50.240;14.302;2022-12-16T16:55:02;49.03;;;22.50;;
76593;SDS011;65482;50.240;14.302;2022-12-16T16:57:47;51.63;;;22.00;;
76593;SDS011;65482;50.240;14.302;2022-12-16T17:00:31;51.28;;;23.60;;
76593;SDS011;65482;50.240;14.302;2022-12-16T17:03:15;45.38;;;21.48;;
76593;SDS011;65482;50.240;14.302;2022-12-16T17:05:59;52.97;;;22.52;;
76593;SDS011;65482;50.240;14.302;2022-12-16T17:08:43;51.83;;;23.42;;
76593;SDS011;65482;50.240;14.302;2022-12-16T17:11:28;57.95;;;23.58;;
76593;SDS011;65482;50.240;14.302;2022-12-16T17:14:14;52.45;;;23.77;;
76593;SDS011;65482;50.240;14.302;2022-12-16T17:17:01;53.92;;;22.58;;
76593;SDS011;65482;50.240;14.302;2022-12-16T17:19:45;52.28;;;24.85;;
76593;SDS011;65482;50.240;14.302;2022-12-16T17:25:13;73.72;;;28.08;;
76593;SDS011;65482;50.240;14.302;2022-12-16T17:30:42;74.38;;;27.75;;
76593;SDS011;65482;50.240;14.302;2022-12-16T17:33:41;81.18;;;31.10;;
76593;SDS011;65482;50.240;14.302;2022-12-16T17:39:09;62.85;;;26.02;;
76593;SDS011;65482;50.240;14.302;2022-12-16T17:41:54;60.42;;;27.10;;
76593;SDS011;65482;50.240;14.302;2022-12-16T17:44:38;70.75;;;32.53;;
76593;SDS011;65482;50.240;14.302;2022-12-16T17:47:22;59.13;;;26.80;;
76593;SDS011;65482;50.240;14.302;2022-12-16T17:50:06;61.85;;;26.70;;
76593;SDS011;65482;50.240;14.302;2022-12-16T17:52:54;62.45;;;27.10;;
76593;SDS011;65482;50.240;14.302;2022-12-16T17:55:39;63.22;;;26.98;;
76593;SDS011;65482;50.240;14.302;2022-12-16T17:58:34;55.45;;;26.13;;
76593;SDS011;65482;50.240;14.302;2022-12-16T18:01:19;67.78;;;25.92;;
76593;SDS011;65482;50.240;14.302;2022-12-16T18:04:04;61.13;;;28.67;;
76593;SDS011;65482;50.240;14.302;2022-12-16T18:06:50;55.05;;;25.17;;
76593;SDS011;65482;50.240;14.302;2022-12-16T18:09:35;57.85;;;25.13;;
76593;SDS011;65482;50.240;14.302;2022-12-16T18:12:19;56.47;;;25.55;;
76593;SDS011;65482;50.240;14.302;2022-12-16T18:15:04;57.72;;;25.52;;
76593;SDS011;65482;50.240;14.302;2022-12-16T18:17:49;57.33;;;25.42;;
76593;SDS011;65482;50.240;14.302;2022-12-16T18:23:18;63.72;;;25.67;;
76593;SDS011;65482;50.240;14.302;2022-12-16T18:28:49;52.17;;;22.90;;
76593;SDS011;65482;50.240;14.302;2022-12-16T18:31:33;61.20;;;25.50;;
76593;SDS011;65482;50.240;14.302;2022-12-16T18:34:31;60.55;;;27.05;;
76593;SDS011;65482;50.240;14.302;2022-12-16T18:37:16;57.65;;;26.20;;
76593;SDS011;65482;50.240;14.302;2022-12-16T18:40:00;59.50;;;26.85;;
76593;SDS011;65482;50.240;14.302;2022-12-16T18:42:45;62.22;;;28.70;;
76593;SDS011;65482;50.240;14.302;2022-12-16T18:45:29;63.13;;;27.23;;
76593;SDS011;65482;50.240;14.302;2022-12-16T18:48:13;63.67;;;27.40;;
76593;SDS011;65482;50.240;14.302;2022-12-16T18:50:58;62.00;;;26.40;;
76593;SDS011;65482;50.240;14.302;2022-12-16T18:53:43;60.67;;;26.90;;
76593;SDS011;65482;50.240;14.302;2022-12-16T18:56:28;60.75;;;27.38;;
76593;SDS011;65482;50.240;14.302;2022-12-16T18:59:12;65.65;;;28.25;;
76593;SDS011;65482;50.240;14.302;2022-12-16T19:01:56;60.25;;;28.52;;
76593;SDS011;65482;50.240;14.302;2022-12-16T19:04:41;62.00;;;26.95;;
76593;SDS011;65482;50.240;14.302;2022-12-16T19:07:25;63.10;;;27.52;;
76593;SDS011;65482;50.240;14.302;2022-12-16T19:10:09;60.97;;;27.70;;
76593;SDS011;65482;50.240;14.302;2022-12-16T19:12:56;62.92;;;27.33;;
76593;SDS011;65482;50.240;14.302;2022-12-16T19:15:41;63.28;;;28.98;;
76593;SDS011;65482;50.240;14.302;2022-12-16T19:18:26;63.45;;;28.10;;
76593;SDS011;65482;50.240;14.302;2022-12-16T19:23:55;63.00;;;27.08;;
76593;SDS011;65482;50.240;14.302;2022-12-16T19:26:40;64.15;;;27.33;;
76593;SDS011;65482;50.240;14.302;2022-12-16T19:29:24;65.07;;;27.15;;
76593;SDS011;65482;50.240;14.302;2022-12-16T19:34:53;59.90;;;25.50;;
76593;SDS011;65482;50.240;14.302;2022-12-16T19:37:39;64.20;;;28.08;;
76593;SDS011;65482;50.240;14.302;2022-12-16T19:40:23;71.25;;;30.80;;
76593;SDS011;65482;50.240;14.302;2022-12-16T19:43:07;63.40;;;29.90;;
76593;SDS011;65482;50.240;14.302;2022-12-16T19:45:54;63.55;;;28.77;;
76593;SDS011;65482;50.240;14.302;2022-12-16T19:48:39;68.97;;;28.40;;
76593;SDS011;65482;50.240;14.302;2022-12-16T19:54:08;66.93;;;28.63;;
76593;SDS011;65482;50.240;14.302;2022-12-16T19:56:52;72.75;;;31.23;;
76593;SDS011;65482;50.240;14.302;2022-12-16T19:59:36;70.75;;;29.67;;
76593;SDS011;65482;50.240;14.302;2022-12-16T20:02:20;64.88;;;28.17;;
76593;SDS011;65482;50.240;14.302;2022-12-16T20:05:05;64.22;;;29.52;;
76593;SDS011;65482;50.240;14.302;2022-12-16T20:07:50;67.85;;;30.05;;
76593;SDS011;65482;50.240;14.302;2022-12-16T20:10:34;65.50;;;28.52;;
76593;SDS011;65482;50.240;14.302;2022-12-16T20:13:19;65.78;;;28.92;;
76593;SDS011;65482;50.240;14.302;2022-12-16T20:18:49;57.55;;;25.85;;
76593;SDS011;65482;50.240;14.302;2022-12-16T20:21:33;63.58;;;27.67;;
76593;SDS011;65482;50.240;14.302;2022-12-16T20:24:17;68.65;;;28.65;;
76593;SDS011;65482;50.240;14.302;2022-12-16T20:27:02;66.22;;;27.73;;
76593;SDS011;65482;50.240;14.302;2022-12-16T20:29:46;62.10;;;27.33;;
76593;SDS011;65482;50.240;14.302;2022-12-16T20:32:30;67.25;;;27.10;;
76593;SDS011;65482;50.240;14.302;2022-12-16T20:35:14;65.82;;;28.08;;
76593;SDS011;65482;50.240;14.302;2022-12-16T20:37:59;59.20;;;27.02;;
76593;SDS011;65482;50.240;14.302;2022-12-16T20:40:43;64.63;;;27.80;;
76593;SDS011;65482;50.240;14.302;2022-12-16T20:43:27;63.35;;;28.60;;
76593;SDS011;65482;50.240;14.302;2022-12-16T20:46:11;59.83;;;27.95;;
76593;SDS011;65482;50.240;14.302;2022-12-16T20:48:55;59.00;;;27.35;;
76593;SDS011;65482;50.240;14.302;2022-12-16T20:51:39;61.10;;;28.75;;
76593;SDS011;65482;50.240;14.302;2022-12-16T20:54:23;64.13;;;29.33;;
76593;SDS011;65482;50.240;14.302;2022-12-16T20:57:07;56.65;;;27.63;;
76593;SDS011;65482;50.240;14.302;2022-12-16T20:59:51;63.30;;;27.23;;
76593;SDS011;65482;50.240;14.302;2022-12-16T21:02:35;65.10;;;27.17;;
76593;SDS011;65482;50.240;14.302;2022-12-16T21:05:20;61.20;;;27.83;;
76593;SDS011;65482;50.240;14.302;2022-12-16T21:08:04;60.70;;;27.70;;
76593;SDS011;65482;50.240;14.302;2022-12-16T21:10:49;62.78;;;27.48;;
76593;SDS011;65482;50.240;14.302;2022-12-16T21:13:32;64.57;;;27.37;;
76593;SDS011;65482;50.240;14.302;2022-12-16T21:16:17;63.90;;;28.63;;
76593;SDS011;65482;50.240;14.302;2022-12-16T21:19:01;58.90;;;26.88;;
76593;SDS011;65482;50.240;14.302;2022-12-16T21:21:45;65.75;;;26.92;;
76593;SDS011;65482;50.240;14.302;2022-12-16T21:24:29;63.63;;;26.92;;
76593;SDS011;65482;50.240;14.302;2022-12-16T21:27:13;63.83;;;27.67;;
76593;SDS011;65482;50.240;14.302;2022-12-16T21:29:59;65.85;;;27.25;;
76593;SDS011;65482;50.240;14.302;2022-12-16T21:32:43;60.88;;;27.60;;
76593;SDS011;65482;50.240;14.302;2022-12-16T21:35:27;57.00;;;26.58;;
76593;SDS011;65482;50.240;14.302;2022-12-16T21:38:12;64.80;;;28.33;;
76593;SDS011;65482;50.240;14.302;2022-12-16T21:40:56;60.85;;;27.50;;
76593;SDS011;65482;50.240;14.302;2022-12-16T21:46:25;60.30;;;26.38;;
76593;SDS011;65482;50.240;14.302;2022-12-16T21:49:10;65.15;;;27.83;;
76593;SDS011;65482;50.240;14.302;2022-12-16T21:51:54;63.97;;;26.58;;
76593;SDS011;65482;50.240;14.302;2022-12-16T21:54:38;62.83;;;27.20;;
76593;SDS011;65482;50.240;14.302;2022-12-16T21:57:22;61.33;;;27.65;;
76593;SDS011;65482;50.240;14.302;2022-12-16T22:00:06;67.32;;;27.55;;
76593;SDS011;65482;50.240;14.302;2022-12-16T22:02:51;66.20;;;28.25;;
76593;SDS011;65482;50.240;14.302;2022-12-16T22:05:38;64.78;;;28.02;;
76593;SDS011;65482;50.240;14.302;2022-12-16T22:08:26;59.10;;;25.73;;
76593;SDS011;65482;50.240;14.302;2022-12-16T22:13:56;60.30;;;25.60;;
76593;SDS011;65482;50.240;14.302;2022-12-16T22:16:41;59.00;;;26.65;;
76593;SDS011;65482;50.240;14.302;2022-12-16T22:19:25;58.60;;;25.45;;
76593;SDS011;65482;50.240;14.302;2022-12-16T22:24:54;60.70;;;26.98;;
76593;SDS011;65482;50.240;14.302;2022-12-16T22:27:38;56.67;;;24.30;;
76593;SDS011;65482;50.240;14.302;2022-12-16T22:30:22;55.00;;;25.00;;
76593;SDS011;65482;50.240;14.302;2022-12-16T22:33:08;58.90;;;26.00;;
76593;SDS011;65482;50.240;14.302;2022-12-16T22:36:10;57.58;;;24.75;;
76593;SDS011;65482;50.240;14.302;2022-12-16T22:38:57;52.88;;;24.60;;
76593;SDS011;65482;50.240;14.302;2022-12-16T22:41:41;54.03;;;24.92;;
76593;SDS011;65482;50.240;14.302;2022-12-16T22:44:42;54.80;;;24.80;;
76593;SDS011;65482;50.240;14.302;2022-12-16T22:47:26;56.92;;;25.13;;
76593;SDS011;65482;50.240;14.302;2022-12-16T22:50:10;58.40;;;27.15;;
76593;SDS011;65482;50.240;14.302;2022-12-16T22:52:54;59.20;;;26.75;;
76593;SDS011;65482;50.240;14.302;2022-12-16T22:55:38;51.92;;;23.90;;
76593;SDS011;65482;50.240;14.302;2022-12-16T22:58:23;57.65;;;25.42;;
76593;SDS011;65482;50.240;14.302;2022-12-16T23:01:07;57.67;;;25.38;;
76593;SDS011;65482;50.240;14.302;2022-12-16T23:03:51;56.85;;;24.73;;
76593;SDS011;65482;50.240;14.302;2022-12-16T23:06:39;58.40;;;25.60;;
76593;SDS011;65482;50.240;14.302;2022-12-16T23:09:23;55.00;;;25.67;;
76593;SDS011;65482;50.240;14.302;2022-12-16T23:12:07;55.03;;;24.92;;
76593;SDS011;65482;50.240;14.302;2022-12-16T23:14:54;60.03;;;25.35;;
76593;SDS011;65482;50.240;14.302;2022-12-16T23:17:39;56.38;;;26.33;;
76593;SDS011;65482;50.240;14.302;2022-12-16T23:20:23;58.60;;;25.70;;
76593;SDS011;65482;50.240;14.302;2022-12-16T23:23:07;58.95;;;24.33;;
76593;SDS011;65482;50.240;14.302;2022-12-16T23:25:55;59.35;;;27.85;;
76593;SDS011;65482;50.240;14.302;2022-12-16T23:28:40;61.47;;;26.60;;
76593;SDS011;65482;50.240;14.302;2022-12-16T23:31:24;62.90;;;27.63;;
76593;SDS011;65482;50.240;14.302;2022-12-16T23:34:08;69.38;;;28.50;;
76593;SDS011;65482;50.240;14.302;2022-12-16T23:36:52;70.43;;;28.58;;
76593;SDS011;65482;50.240;14.302;2022-12-16T23:39:36;64.03;;;27.88;;
76593;SDS011;65482;50.240;14.302;2022-12-16T23:42:20;58.78;;;26.63;;
76593;SDS011;65482;50.240;14.302;2022-12-16T23:45:05;59.50;;;27.23;;
76593;SDS011;65482;50.240;14.302;2022-12-16T23:50:41;60.10;;;24.55;;
76593;SDS011;65482;50.240;14.302;2022-12-16T23:53:25;56.38;;;24.70;;
76593;SDS011;65482;50.240;14.302;2022-12-16T23:56:10;56.58;;;24.92;;
76593;SDS011;65482;50.240;14.302;2022-12-16T23:58:54;49.40;;;23.45;;
